Time;durP1;ratioP1;P1;durP2;ratioP2;P2;SDS_P1;SDS_P2;PMS_P1;PMS_P2;Temp;Humidity;BMP_temperature;BMP_pressure;BME280_temperature;BME280_humidity;BME280_pressure;Samples;Min_cycle;Max_cycle;Signal;HPM_P1;HPM_P2
2023/04/01 00:00:56;;;;;;;3.00;0.77;;;;;;;8.96;94.20;95687.72;5064696;28;20226;-63
2023/04/01 00:03:23;;;;;;;0.93;0.83;;;;;;;8.99;93.54;95682.97;5065451;28;21498;-63
2023/04/01 00:05:53;;;;;;;1.17;0.70;;;;;;;8.97;94.92;95678.81;5066964;28;20225;-64
2023/04/01 00:08:20;;;;;;;2.40;0.83;;;;;;;8.98;93.62;95676.03;5065070;28;20211;-64
2023/04/01 00:10:47;;;;;;;1.47;0.60;;;;;;;8.93;94.11;95678.28;5066840;28;20199;-63
2023/04/01 00:13:16;;;;;;;2.47;0.93;;;;;;;8.94;94.77;95692.31;5066565;28;20217;-64
2023/04/01 00:15:43;;;;;;;1.40;0.47;;;;;;;8.94;94.28;95685.22;5066066;28;20622;-64
2023/04/01 00:18:10;;;;;;;2.07;0.80;;;;;;;9.06;93.35;95677.03;5064942;28;21189;-64
2023/04/01 00:20:37;;;;;;;1.80;0.60;;;;;;;9.06;93.40;95671.78;5065437;28;20227;-64
2023/04/01 00:23:07;;;;;;;0.53;0.47;;;;;;;9.04;93.85;95690.38;5065528;28;20635;-63
2023/04/01 00:25:35;;;;;;;1.63;0.60;;;;;;;9.03;93.55;95682.63;5065393;28;20619;-63
2023/04/01 00:28:02;;;;;;;0.93;0.60;;;;;;;9.02;94.74;95680.97;5064635;28;20207;-62
2023/04/01 00:30:29;;;;;;;2.33;0.83;;;;;;;9.09;92.97;95684.63;5066475;28;20194;-63
2023/04/01 00:32:56;;;;;;;1.30;0.77;;;;;;;9.12;92.61;95693.06;5064710;28;20291;-62
2023/04/01 00:35:23;;;;;;;1.50;0.60;;;;;;;9.06;91.09;95685.78;5063334;28;20534;-62
2023/04/01 00:37:51;;;;;;;1.87;0.60;;;;;;;9.04;92.29;95684.28;5064923;28;20195;-63
2023/04/01 00:40:27;;;;;;;1.50;0.60;;;;;;;9.07;92.14;95668.97;5064450;28;20238;-65
2023/04/01 00:42:53;;;;;;;1.67;0.70;;;;;;;9.08;91.31;95680.34;5065265;28;20203;-62
2023/04/01 00:45:29;;;;;;;0.77;0.40;;;;;;;9.07;91.38;95678.72;5064536;28;20203;-63
2023/04/01 00:47:56;;;;;;;1.83;0.87;;;;;;;9.06;91.87;95677.03;5063800;28;20293;-62
2023/04/01 00:50:24;;;;;;;1.03;0.40;;;;;;;9.08;92.28;95682.97;5065160;28;20198;-63
2023/04/01 00:52:51;;;;;;;0.57;0.37;;;;;;;9.08;91.52;95688.25;5064691;28;20557;-64
2023/04/01 00:55:20;;;;;;;0.50;0.50;;;;;;;9.07;91.34;95686.63;5065014;28;20199;-63
2023/04/01 00:57:49;;;;;;;0.90;0.43;;;;;;;9.05;92.04;95685.94;5064235;28;20623;-63
2023/04/01 01:00:17;;;;;;;0.43;0.30;;;;;;;9.03;92.48;95699.28;5065065;28;20222;-63
2023/04/01 01:02:46;;;;;;;2.83;0.67;;;;;;;8.98;93.27;95694.47;5064780;28;20206;-63
2023/04/01 01:05:13;;;;;;;1.07;0.60;;;;;;;8.90;93.04;95675.97;5066643;28;20210;-64
2023/04/01 01:07:50;;;;;;;0.73;0.40;;;;;;;8.90;93.16;95691.78;5065863;28;20207;-64
2023/04/01 01:10:18;;;;;;;2.23;0.60;;;;;;;8.85;92.69;95670.34;5060094;28;20603;-63
2023/04/01 01:12:48;;;;;;;1.37;0.43;;;;;;;8.75;94.73;95668.81;5045025;28;20623;-64
2023/04/01 01:15:22;;;;;;;1.03;0.50;;;;;;;8.62;95.03;95685.00;5046256;28;20202;-63
2023/04/01 01:17:53;;;;;;;0.60;0.40;;;;;;;8.67;94.67;95666.94;5044266;28;20236;-64
2023/04/01 01:20:42;;;;;;;1.40;0.60;;;;;;;8.55;96.15;95651.53;5047664;28;20214;-65
2023/04/01 01:23:52;;;;;;;1.33;0.67;;;;;;;8.67;94.97;95656.41;5047036;28;20200;-64
2023/04/01 01:27:01;;;;;;;2.50;0.83;;;;;;;8.58;95.11;95648.56;5055075;28;20214;-65
2023/04/01 01:29:53;;;;;;;2.80;0.90;;;;;;;8.52;95.76;95655.31;5039909;28;20223;-64
2023/04/01 01:32:32;;;;;;;1.73;0.57;;;;;;;8.54;95.21;95655.97;5060917;28;20207;-65
2023/04/01 01:35:14;;;;;;;1.60;0.40;;;;;;;8.46;96.38;95640.97;5052081;28;20200;-65
2023/04/01 01:37:44;;;;;;;3.20;0.97;;;;;;;8.40;96.53;95646.81;5050699;28;20199;-64
2023/04/01 01:40:12;;;;;;;1.20;0.70;;;;;;;8.35;97.88;95640.38;5051910;28;20215;-63
2023/04/01 01:42:41;;;;;;;2.23;0.70;;;;;;;8.42;96.53;95657.22;5049835;28;20506;-64
2023/04/01 01:45:10;;;;;;;1.67;0.83;;;;;;;8.46;95.27;95661.19;5048549;28;20199;-64
2023/04/01 01:47:37;;;;;;;3.13;0.87;;;;;;;8.53;95.05;95672.78;5046112;28;20214;-64
2023/04/01 01:50:08;;;;;;;2.37;1.10;;;;;;;8.48;94.77;95672.41;5047004;28;20214;-64
2023/04/01 01:52:34;;;;;;;3.67;1.20;;;;;;;8.55;94.06;95656.81;5045401;28;20211;-64
2023/04/01 01:55:01;;;;;;;1.93;0.77;;;;;;;8.56;94.19;95659.28;5048354;28;20211;-64
2023/04/01 01:57:30;;;;;;;2.13;0.90;;;;;;;8.66;92.66;95651.28;5044308;28;20205;-64
2023/04/01 02:00:00;;;;;;;1.90;0.63;;;;;;;8.58;93.06;95641.50;5043681;28;20210;-64
2023/04/01 02:02:31;;;;;;;2.63;0.87;;;;;;;8.61;92.37;95643.03;5042247;28;20203;-63
2023/04/01 02:04:59;;;;;;;2.40;1.00;;;;;;;8.65;90.80;95646.97;5048248;28;20199;-64
2023/04/01 02:07:31;;;;;;;3.50;1.43;;;;;;;8.65;90.73;95639.91;5046729;28;20203;-65
2023/04/01 02:09:57;;;;;;;2.73;0.90;;;;;;;8.70;90.08;95640.28;5048334;28;20207;-64
2023/04/01 02:12:26;;;;;;;2.27;0.80;;;;;;;8.79;89.31;95633.22;5047013;28;20218;-64
2023/04/01 02:14:54;;;;;;;1.70;1.00;;;;;;;8.74;88.78;95644.25;5046426;28;20207;-64
2023/04/01 02:17:22;;;;;;;3.17;1.00;;;;;;;8.64;88.93;95634.81;5054127;28;20199;-64
2023/04/01 02:19:54;;;;;;;2.60;1.00;;;;;;;8.66;89.54;95646.84;5059360;28;20204;-66
2023/04/01 02:22:23;;;;;;;2.53;0.97;;;;;;;8.71;88.59;95644.56;5047340;28;20219;-64
2023/04/01 02:24:52;;;;;;;1.67;1.00;;;;;;;8.68;88.38;95636.16;5047381;28;20208;-63
2023/04/01 02:27:19;;;;;;;2.87;1.10;;;;;;;8.71;87.47;95639.31;5049381;28;20199;-65
2023/04/01 02:29:49;;;;;;;2.10;0.93;;;;;;;8.70;88.42;95650.81;5045201;28;20218;-64
2023/04/01 02:32:18;;;;;;;3.17;1.30;;;;;;;8.69;87.20;95664.13;5048328;28;20277;-63
2023/04/01 02:34:46;;;;;;;2.30;1.20;;;;;;;8.53;88.68;95664.88;5052735;28;20212;-66
2023/04/01 02:37:14;;;;;;;2.37;1.00;;;;;;;8.60;88.24;95665.91;5051414;28;20231;-66
2023/04/01 02:39:43;;;;;;;2.30;1.27;;;;;;;8.58;88.87;95661.75;5044047;28;20628;-65
2023/04/01 02:42:13;;;;;;;4.17;1.33;;;;;;;8.65;87.63;95657.50;5058060;28;20218;-66
2023/04/01 02:44:40;;;;;;;2.37;1.10;;;;;;;8.74;85.95;95664.50;5063299;28;20184;-66
2023/04/01 02:47:06;;;;;;;1.30;0.90;;;;;;;8.64;87.69;95659.34;5063417;28;21327;-64
2023/04/01 02:49:33;;;;;;;3.50;0.97;;;;;;;8.63;88.92;95652.41;5042592;28;20203;-63
2023/04/01 02:51:59;;;;;;;3.07;1.03;;;;;;;8.61;87.91;95649.09;5042590;28;20273;-66
2023/04/01 02:54:26;;;;;;;1.87;0.90;;;;;;;8.59;88.08;95640.53;5042496;28;20203;-64
2023/04/01 02:56:54;;;;;;;2.17;0.90;;;;;;;8.63;87.38;95649.78;5043585;28;20203;-63
2023/04/01 02:59:22;;;;;;;1.87;1.00;;;;;;;8.68;86.69;95646.69;5043229;28;20203;-65
2023/04/01 03:01:49;;;;;;;2.77;1.43;;;;;;;8.69;86.68;95659.69;5058164;28;20233;-65
2023/04/01 03:04:16;;;;;;;0.90;0.70;;;;;;;8.62;87.15;95653.38;5064431;28;20210;-63
2023/04/01 03:06:43;;;;;;;2.33;0.70;;;;;;;8.65;86.89;95653.06;5051088;28;20206;-64
2023/04/01 03:09:10;;;;;;;3.93;1.43;;;;;;;8.58;87.05;95640.66;5042938;28;20199;-64
2023/04/01 03:11:38;;;;;;;2.60;1.27;;;;;;;8.53;88.41;95645.59;5044714;28;20558;-64
2023/04/01 03:14:04;;;;;;;3.93;1.30;;;;;;;8.52;87.59;95650.03;5048103;28;20207;-65
2023/04/01 03:16:32;;;;;;;2.17;1.00;;;;;;;8.59;87.55;95648.44;5045198;28;20211;-65
2023/04/01 03:19:01;;;;;;;3.50;1.33;;;;;;;8.56;87.20;95648.75;5042885;28;20227;-65
2023/04/01 03:21:28;;;;;;;1.93;1.40;;;;;;;8.54;86.72;95652.53;5043193;28;20219;-67
2023/04/01 03:23:55;;;;;;;3.57;1.17;;;;;;;8.53;87.20;95651.69;5042536;28;20269;-64
2023/04/01 03:26:22;;;;;;;2.87;1.40;;;;;;;8.52;87.31;95644.78;5043651;28;20524;-65
2023/04/01 03:28:50;;;;;;;2.63;0.80;;;;;;;8.45;87.88;95639.28;5041285;28;20897;-65
2023/04/01 03:31:17;;;;;;;2.83;1.50;;;;;;;8.49;87.21;95638.00;5043569;28;20204;-64
2023/04/01 03:33:45;;;;;;;2.10;1.30;;;;;;;8.55;86.56;95620.75;5041971;28;20222;-64
2023/04/01 03:36:12;;;;;;;3.53;1.10;;;;;;;8.55;86.25;95626.00;5042286;28;20651;-64
2023/04/01 03:38:39;;;;;;;1.57;0.63;;;;;;;8.54;86.61;95626.97;5042974;28;21321;-65
2023/04/01 03:41:05;;;;;;;1.93;0.80;;;;;;;8.46;87.11;95619.06;5042149;28;20222;-65
2023/04/01 03:43:33;;;;;;;2.03;0.57;;;;;;;8.54;85.99;95632.25;5043161;28;20213;-66
2023/04/01 03:46:00;;;;;;;3.70;0.90;;;;;;;8.46;86.53;95632.22;5042364;28;20207;-64
2023/04/01 03:48:27;;;;;;;1.87;0.60;;;;;;;8.40;86.45;95643.34;5042721;28;21339;-63
2023/04/01 03:50:55;;;;;;;2.13;0.80;;;;;;;8.44;86.61;95644.69;5049318;28;20286;-65
2023/04/01 03:53:21;;;;;;;2.97;0.73;;;;;;;8.51;85.46;95629.94;5058003;28;20200;-66
2023/04/01 03:55:51;;;;;;;0.97;0.73;;;;;;;8.61;85.63;95635.91;5058958;28;20199;-65
2023/04/01 03:58:21;;;;;;;2.63;0.97;;;;;;;8.55;86.18;95639.19;5060712;28;20253;-65
2023/04/01 04:00:47;;;;;;;1.83;0.70;;;;;;;8.51;86.40;95629.94;5044091;28;20246;-64
2023/04/01 04:03:13;;;;;;;2.50;0.73;;;;;;;8.57;86.02;95631.97;5043111;28;20207;-63
2023/04/01 04:05:47;;;;;;;3.13;1.07;;;;;;;8.72;84.57;95635.66;5041575;28;20199;-64
2023/04/01 04:08:16;;;;;;;1.70;1.13;;;;;;;8.70;84.45;95629.72;5042722;28;20214;-63
2023/04/01 04:10:43;;;;;;;1.97;0.87;;;;;;;8.70;83.91;95629.72;5043474;28;20575;-64
2023/04/01 04:13:11;;;;;;;3.73;1.00;;;;;;;8.75;84.07;95637.97;5046683;28;20211;-64
2023/04/01 04:15:39;;;;;;;1.70;0.60;;;;;;;8.71;84.51;95631.41;5047807;28;20204;-66
2023/04/01 04:18:05;;;;;;;1.50;1.00;;;;;;;8.72;83.92;95633.03;5045410;28;20248;-64
2023/04/01 04:20:32;;;;;;;3.57;1.20;;;;;;;8.65;85.07;95632.00;5048324;28;20204;-65
2023/04/01 04:22:59;;;;;;;2.07;0.80;;;;;;;8.70;84.94;95642.06;5047346;28;20204;-65
2023/04/01 04:25:27;;;;;;;2.67;0.70;;;;;;;8.84;82.72;95638.88;5047384;28;20207;-65
2023/04/01 04:27:56;;;;;;;3.00;0.67;;;;;;;8.83;83.44;95640.66;5045734;28;20195;-65
2023/04/01 04:30:24;;;;;;;1.77;0.70;;;;;;;8.85;82.46;95648.44;5046387;28;20211;-64
2023/04/01 04:32:53;;;;;;;1.23;0.73;;;;;;;8.90;82.77;95657.50;5044915;28;20212;-64
2023/04/01 04:35:21;;;;;;;2.00;0.80;;;;;;;8.89;84.85;95650.56;5046812;28;20514;-63
2023/04/01 04:37:48;;;;;;;2.27;0.67;;;;;;;8.84;86.16;95662.59;5045243;28;20208;-65
2023/04/01 04:40:15;;;;;;;0.60;0.40;;;;;;;8.80;84.99;95655.97;5045744;28;20207;-64
2023/04/01 04:42:43;;;;;;;1.70;0.70;;;;;;;8.84;87.53;95652.88;5045091;28;20603;-65
2023/04/01 04:45:12;;;;;;;0.97;0.40;;;;;;;8.75;87.25;95653.78;5046003;28;21026;-64
2023/04/01 04:47:40;;;;;;;1.53;0.40;;;;;;;8.76;88.81;95671.28;5046598;28;20211;-65
2023/04/01 04:50:08;;;;;;;2.07;0.73;;;;;;;8.72;88.61;95683.09;5044555;28;20195;-64
2023/04/01 04:52:35;;;;;;;3.27;0.73;;;;;;;8.66;90.40;95678.47;5045615;28;20639;-66
2023/04/01 04:55:01;;;;;;;1.13;0.50;;;;;;;8.48;92.26;95682.94;5045333;28;20200;-64
2023/04/01 04:57:28;;;;;;;1.20;0.30;;;;;;;8.38;93.41;95676.94;5045344;28;20563;-65
2023/04/01 04:59:56;;;;;;;2.37;0.77;;;;;;;8.42;92.98;95678.28;5044507;28;20203;-64
2023/04/01 05:02:23;;;;;;;1.43;0.50;;;;;;;8.44;92.15;95682.41;5045087;28;20342;-64
2023/04/01 05:04:49;;;;;;;1.10;0.50;;;;;;;8.30;93.94;95679.50;5044381;28;21243;-66
2023/04/01 05:07:16;;;;;;;2.87;0.80;;;;;;;8.19;93.88;95679.69;5045179;28;20207;-64
2023/04/01 05:09:45;;;;;;;1.50;0.40;;;;;;;8.17;95.09;95679.03;5044378;28;20298;-64
2023/04/01 05:12:15;;;;;;;0.93;0.27;;;;;;;8.23;92.96;95686.31;5045411;28;20208;-64
2023/04/01 05:14:43;;;;;;;1.63;0.50;;;;;;;8.13;93.41;95683.78;5045944;28;20304;-64
2023/04/01 05:17:12;;;;;;;3.17;0.50;;;;;;;8.11;94.39;95679.66;5045448;28;20230;-64
2023/04/01 05:19:39;;;;;;;0.57;0.47;;;;;;;8.11;94.95;95688.38;5045101;28;20210;-64
2023/04/01 05:22:06;;;;;;;2.27;0.60;;;;;;;8.11;95.29;95672.59;5043335;28;20238;-65
2023/04/01 05:24:34;;;;;;;1.30;0.43;;;;;;;8.05;96.79;95677.59;5044504;28;20541;-64
2023/04/01 05:27:01;;;;;;;1.27;0.60;;;;;;;8.10;95.68;95675.34;5044067;28;20211;-65
2023/04/01 05:29:27;;;;;;;1.33;0.60;;;;;;;8.12;96.02;95681.28;5044577;28;20215;-63
2023/04/01 05:31:54;;;;;;;1.37;0.60;;;;;;;8.08;96.33;95686.03;5043990;28;20646;-65
2023/04/01 05:34:22;;;;;;;0.77;0.40;;;;;;;8.13;95.81;95693.47;5044096;28;20643;-64
2023/04/01 05:36:48;;;;;;;1.73;0.80;;;;;;;8.04;97.00;95705.75;5044762;28;21351;-64
2023/04/01 05:39:16;;;;;;;0.73;0.63;;;;;;;8.09;96.96;95705.28;5044597;28;20616;-65
2023/04/01 05:41:43;;;;;;;1.50;0.50;;;;;;;8.04;97.56;95705.75;5044509;28;20234;-64
2023/04/01 05:44:14;;;;;;;1.33;0.50;;;;;;;8.10;98.33;95701.69;5044553;28;20643;-64
2023/04/01 05:46:40;;;;;;;2.27;0.47;;;;;;;8.23;95.82;95710.03;5043866;28;20631;-65
2023/04/01 05:49:07;;;;;;;1.30;0.40;;;;;;;8.18;97.51;95691.25;5025654;28;20208;-64
2023/04/01 05:51:37;;;;;;;1.10;0.50;;;;;;;8.23;97.49;95697.69;5044979;28;20207;-65
2023/04/01 05:54:05;;;;;;;0.27;0.20;;;;;;;8.32;97.36;95696.00;5044165;28;20204;-63
2023/04/01 05:56:32;;;;;;;0.93;0.50;;;;;;;8.42;97.09;95696.72;5044130;28;20203;-64
2023/04/01 05:58:58;;;;;;;2.10;0.57;;;;;;;8.50;96.02;95691.53;5044929;28;20541;-64
2023/04/01 06:01:26;;;;;;;0.73;0.30;;;;;;;8.52;96.63;95692.19;5043961;28;20223;-64
2023/04/01 06:03:52;;;;;;;1.60;0.53;;;;;;;8.69;94.76;95691.31;5043184;28;20298;-65
2023/04/01 06:06:26;;;;;;;1.10;0.37;;;;;;;8.66;94.26;95689.00;5044977;28;20273;-64
2023/04/01 06:08:57;;;;;;;0.83;0.50;;;;;;;8.61;94.86;95688.63;5044336;28;20210;-64
2023/04/01 06:11:28;;;;;;;0.93;0.40;;;;;;;8.72;94.03;95691.00;5056201;28;20183;-66
2023/04/01 06:14:14;;;;;;;0.87;0.33;;;;;;;9.12;91.47;95690.44;5072765;28;20213;-66
2023/04/01 06:16:51;;;;;;;1.80;0.40;;;;;;;10.09;88.95;95695.19;5052518;28;20196;-66
2023/04/01 06:19:27;;;;;;;1.73;0.90;;;;;;;11.64;80.75;95685.06;5044107;28;20321;-64
2023/04/01 06:22:10;;;;;;;0.60;0.30;;;;;;;11.90;76.24;95677.63;5058009;28;20207;-66
2023/04/01 06:24:49;;;;;;;0.90;0.50;;;;;;;11.47;77.84;95688.78;5044328;28;20196;-64
2023/04/01 06:27:26;;;;;;;0.63;0.50;;;;;;;11.41;79.65;95692.91;5045163;28;20223;-66
2023/04/01 06:30:00;;;;;;;0.40;0.30;;;;;;;10.84;81.37;95689.59;5068802;28;20206;-67
2023/04/01 06:32:41;;;;;;;0.97;0.47;;;;;;;10.63;81.62;95688.47;5074063;28;20175;-67
2023/04/01 06:35:27;;;;;;;0.37;0.33;;;;;;;10.63;81.57;95677.91;5046523;28;20635;-63
2023/04/01 06:38:29;;;;;;;0.30;0.30;;;;;;;10.65;81.27;95700.53;5043428;28;20219;-64
2023/04/01 06:41:08;;;;;;;1.07;0.23;;;;;;;10.91;80.36;95687.13;5040444;28;20217;-64
2023/04/01 06:43:42;;;;;;;1.73;0.40;;;;;;;11.39;78.21;95672.91;5043658;28;20203;-64
2023/04/01 06:46:15;;;;;;;0.93;0.30;;;;;;;11.70;75.69;95679.06;5044113;28;20200;-64
2023/04/01 06:49:04;;;;;;;0.87;0.50;;;;;;;11.58;76.57;95667.22;5043632;28;20196;-65
2023/04/01 06:51:39;;;;;;;0.53;0.20;;;;;;;11.67;74.71;95671.47;5043379;28;20290;-64
2023/04/01 06:54:10;;;;;;;0.30;0.30;;;;;;;11.43;74.80;95663.63;5044006;28;20214;-66
2023/04/01 06:56:41;;;;;;;0.37;0.13;;;;;;;11.25;76.19;95673.63;5042874;28;20880;-65
2023/04/01 06:59:11;;;;;;;0.83;0.40;;;;;;;10.91;78.32;95685.28;5043832;28;20203;-65
2023/04/01 07:01:41;;;;;;;0.93;0.40;;;;;;;10.69;77.56;95686.00;5043634;28;20248;-65
2023/04/01 07:04:13;;;;;;;0.47;0.23;;;;;;;10.57;81.13;95671.44;5042479;28;20543;-64
2023/04/01 07:06:45;;;;;;;0.43;0.17;;;;;;;10.49;79.98;95674.09;5044231;28;20295;-65
2023/04/01 07:09:16;;;;;;;0.90;0.37;;;;;;;10.52;80.05;95694.94;5043114;28;20234;-64
2023/04/01 07:11:46;;;;;;;0.60;0.20;;;;;;;10.45;80.81;95683.38;5042803;28;20203;-64
2023/04/01 07:14:18;;;;;;;0.77;0.33;;;;;;;10.44;81.03;95685.19;5043368;28;20655;-64
2023/04/01 07:16:49;;;;;;;0.50;0.20;;;;;;;10.22;80.97;95677.06;5042432;28;20319;-64
2023/04/01 07:19:21;;;;;;;0.70;0.33;;;;;;;10.15;83.25;95684.00;5041710;28;20231;-65
2023/04/01 07:21:52;;;;;;;1.33;0.40;;;;;;;10.09;82.65;95703.13;5043299;28;20200;-65
2023/04/01 07:24:24;;;;;;;0.60;0.30;;;;;;;9.85;85.53;95695.97;5043033;28;20651;-63
2023/04/01 07:26:58;;;;;;;0.30;0.20;;;;;;;9.75;88.16;95690.81;5043785;28;20196;-63
2023/04/01 07:29:26;;;;;;;1.60;0.40;;;;;;;9.73;90.76;95684.91;5043280;28;20199;-64
2023/04/01 07:32:21;;;;;;;0.17;0.13;;;;;;;9.69;91.80;95690.66;5042972;28;20611;-65
2023/04/01 07:34:55;;;;;;;0.20;0.20;;;;;;;9.63;90.96;95701.84;5043573;28;20206;-65
2023/04/01 07:37:28;;;;;;;0.30;0.10;;;;;;;9.58;91.99;95704.97;5050301;28;20209;-66
2023/04/01 07:40:03;;;;;;;0.77;0.20;;;;;;;9.53;92.29;95701.97;5052771;28;20363;-64
2023/04/01 07:42:37;;;;;;;1.80;0.50;;;;;;;9.43;92.09;95699.47;5050646;28;20660;-67
2023/04/01 07:45:10;;;;;;;1.03;0.50;;;;;;;9.48;93.80;95704.28;5042791;28;20203;-64
2023/04/01 07:47:52;;;;;;;0.50;0.30;;;;;;;9.45;93.47;95704.59;5042521;28;20198;-64
2023/04/01 07:50:23;;;;;;;0.70;0.20;;;;;;;9.45;93.63;95704.59;5042757;28;20204;-65
2023/04/01 07:53:00;;;;;;;0.33;0.30;;;;;;;9.52;93.44;95708.25;5042612;28;20199;-65
2023/04/01 07:55:31;;;;;;;0.90;0.50;;;;;;;9.49;94.70;95711.22;5042061;28;20848;-64
2023/04/01 07:58:05;;;;;;;0.73;0.43;;;;;;;9.50;94.13;95726.03;5042184;28;20203;-65
2023/04/01 08:00:40;;;;;;;1.70;0.30;;;;;;;9.56;95.18;95720.16;5044003;28;20207;-65
2023/04/01 08:03:17;;;;;;;0.40;0.30;;;;;;;9.50;91.61;95718.13;5045214;28;20544;-65
2023/04/01 08:05:55;;;;;;;0.40;0.20;;;;;;;9.45;93.03;95717.78;5046935;28;20198;-64
2023/04/01 08:08:32;;;;;;;2.00;0.30;;;;;;;9.43;94.68;95717.94;5047317;28;20213;-65
2023/04/01 08:11:03;;;;;;;0.50;0.30;;;;;;;9.42;94.10;95712.84;5046166;28;20566;-65
2023/04/01 08:13:38;;;;;;;0.33;0.20;;;;;;;9.40;94.72;95712.16;5046709;28;20207;-64
2023/04/01 08:16:11;;;;;;;0.87;0.30;;;;;;;9.25;96.40;95703.16;5046234;28;20203;-65
2023/04/01 08:18:44;;;;;;;1.30;0.30;;;;;;;9.26;95.16;95712.75;5044446;28;20350;-64
2023/04/01 08:21:14;;;;;;;0.70;0.40;;;;;;;9.30;97.02;95708.81;5045776;28;20286;-65
2023/04/01 08:23:44;;;;;;;0.30;0.30;;;;;;;9.26;97.41;95723.28;5045497;28;20671;-65
2023/04/01 08:26:16;;;;;;;0.10;0.10;;;;;;;9.33;97.44;95709.31;5046404;28;20195;-64
2023/04/01 08:28:46;;;;;;;0.10;0.10;;;;;;;9.26;96.55;95710.09;5046695;28;20214;-64
2023/04/01 08:31:15;;;;;;;0.17;0.10;;;;;;;9.28;97.25;95714.22;5045343;28;20203;-64
2023/04/01 08:33:44;;;;;;;0.53;0.20;;;;;;;9.29;98.21;95715.06;5045436;28;20205;-64
2023/04/01 08:36:15;;;;;;;1.90;0.20;;;;;;;9.09;100.00;95719.75;5045971;28;20210;-65
2023/04/01 08:38:44;;;;;;;0.97;0.10;;;;;;;9.17;99.29;95721.63;5045571;28;20202;-65
2023/04/01 08:41:24;;;;;;;0.30;0.20;;;;;;;9.14;100.00;95714.81;5046411;28;20578;-63
2023/04/01 08:44:10;;;;;;;0.20;0.20;;;;;;;9.14;99.92;95714.03;5062490;28;20211;-64
2023/04/01 08:46:49;;;;;;;0.53;0.53;;;;;;;9.11;99.33;95717.78;5062216;28;20195;-63
2023/04/01 08:49:34;;;;;;;0.27;0.27;;;;;;;9.05;100.00;95717.56;5054475;28;20202;-65
2023/04/01 08:52:20;;;;;;;0.20;0.20;;;;;;;9.04;100.00;95715.91;5065175;28;20195;-65
2023/04/01 08:55:02;;;;;;;0.40;0.40;;;;;;;9.11;100.00;95723.03;5053608;28;20210;-65
2023/04/01 08:57:41;;;;;;;0.73;0.20;;;;;;;9.02;100.00;95725.81;5060569;28;20303;-65
2023/04/01 09:00:21;;;;;;;1.50;0.20;;;;;;;8.90;100.00;95722.59;5053335;28;20225;-65
2023/04/01 09:02:56;;;;;;;0.83;0.23;;;;;;;8.92;100.00;95724.13;5049212;28;20218;-63
2023/04/01 09:05:38;;;;;;;1.27;0.30;;;;;;;8.90;100.00;95726.06;5053884;28;20215;-64
2023/04/01 09:08:29;;;;;;;0.30;0.30;;;;;;;8.92;100.00;95721.47;5054887;28;20203;-65
2023/04/01 09:11:01;;;;;;;1.00;0.17;;;;;;;8.96;100.00;95720.16;5051036;28;20286;-66
2023/04/01 09:13:42;;;;;;;1.90;0.53;;;;;;;8.99;100.00;95725.16;5048517;28;20212;-65
2023/04/01 09:16:23;;;;;;;0.47;0.20;;;;;;;8.93;100.00;95724.91;5050772;28;20219;-66
2023/04/01 09:19:07;;;;;;;0.10;0.10;;;;;;;8.96;100.00;95735.19;5046489;28;20717;-65
2023/04/01 09:21:42;;;;;;;1.37;0.30;;;;;;;9.02;100.00;95731.91;5047871;28;20207;-66
2023/04/01 09:24:27;;;;;;;0.20;0.20;;;;;;;9.15;100.00;95734.13;5047328;28;20222;-65
2023/04/01 09:27:05;;;;;;;1.50;0.40;;;;;;;9.20;100.00;95737.13;5046536;28;20268;-66
2023/04/01 09:29:50;;;;;;;0.40;0.23;;;;;;;9.32;100.00;95739.31;5044368;28;20214;-61
2023/04/01 09:32:34;;;;;;;0.10;0.10;;;;;;;9.48;100.00;95733.31;5045661;28;20293;-59
2023/04/01 09:35:11;;;;;;;0.10;0.10;;;;;;;9.59;100.00;95730.38;5044271;28;20200;-60
2023/04/01 09:37:51;;;;;;;0.77;0.33;;;;;;;9.63;100.00;95738.81;5045928;28;20208;-61
2023/04/01 09:40:19;;;;;;;0.40;0.40;;;;;;;9.76;100.00;95734.72;5045286;28;20211;-59
2023/04/01 09:42:53;;;;;;;0.60;0.40;;;;;;;9.87;99.58;95741.53;5043787;28;20660;-60
2023/04/01 09:45:45;;;;;;;0.20;0.20;;;;;;;10.11;100.00;95735.47;5045883;28;20198;-62
2023/04/01 09:48:36;;;;;;;0.83;0.20;;;;;;;10.24;97.61;95734.03;5045729;28;20200;-59
2023/04/01 09:51:18;;;;;;;0.17;0.17;;;;;;;10.47;95.87;95729.78;5045591;28;20207;-59
2023/04/01 09:53:57;;;;;;;0.20;0.20;;;;;;;10.43;90.84;95736.38;5044720;28;20198;-59
2023/04/01 09:57:07;;;;;;;0.10;0.10;;;;;;;10.59;94.47;95732.94;5049434;28;20203;-71
2023/04/01 10:00:05;;;;;;;0.20;0.20;;;;;;;10.73;95.70;95729.63;5075361;28;20201;-63
2023/04/01 10:03:21;;;;;;;0.10;0.10;;;;;;;10.81;87.35;95718.19;5045711;28;20207;-65
2023/04/01 10:06:38;;;;;;;0.20;0.20;;;;;;;10.91;85.78;95724.94;5045230;28;20215;-65
2023/04/01 10:09:36;;;;;;;0.20;0.20;;;;;;;10.91;87.02;95737.38;5013190;28;20219;-66
2023/04/01 10:12:46;;;;;;;0.30;0.30;;;;;;;10.80;87.34;95724.50;5014551;28;20208;-66
2023/04/01 10:15:34;;;;;;;1.10;0.10;;;;;;;10.64;86.54;95737.69;5007440;28;20194;-67
2023/04/01 10:18:32;;;;;;;0.10;0.10;;;;;;;10.54;89.51;95735.22;5074491;28;20306;-65
2023/04/01 10:21:38;;;;;;;1.20;0.40;;;;;;;10.65;90.26;95747.28;5044860;28;20203;-64
2023/04/01 10:24:27;;;;;;;0.30;0.30;;;;;;;10.57;89.87;95732.25;5027987;28;20237;-65
2023/04/01 10:27:23;;;;;;;0.10;0.10;;;;;;;10.42;88.91;95729.44;5045439;28;20498;-64
2023/04/01 10:30:19;;;;;;;0.30;0.20;;;;;;;10.62;86.63;95732.59;5042577;28;20212;-66
2023/04/01 10:33:04;;;;;;;0.37;0.30;;;;;;;10.66;90.91;95723.34;5043287;28;20225;-65
2023/04/01 10:35:58;;;;;;;1.07;0.33;;;;;;;10.69;87.62;95727.47;5043894;28;20275;-65
2023/04/01 10:38:56;;;;;;;1.00;0.40;;;;;;;10.59;85.14;95726.81;5043976;28;20206;-67
2023/04/01 10:41:42;;;;;;;0.20;0.20;;;;;;;10.67;88.65;95735.56;5033457;28;20207;-70
2023/04/01 10:44:29;;;;;;;0.67;0.30;;;;;;;10.75;86.67;95738.22;5044088;28;20211;-69
2023/04/01 10:47:27;;;;;;;0.50;0.50;;;;;;;10.71;86.77;95730.75;5045057;28;20207;-70
2023/04/01 10:50:23;;;;;;;0.47;0.20;;;;;;;10.70;85.35;95731.78;5044936;28;20206;-69
2023/04/01 10:53:49;;;;;;;0.80;0.20;;;;;;;10.76;86.85;95728.47;5035272;28;20212;-70
2023/04/01 10:56:48;;;;;;;0.13;0.13;;;;;;;10.83;90.08;95718.88;5042701;28;20234;-70
2023/04/01 10:59:35;;;;;;;0.30;0.30;;;;;;;10.96;88.91;95721.81;5043082;28;20207;-70
2023/04/01 11:02:37;;;;;;;0.17;0.17;;;;;;;10.98;87.67;95733.88;5047235;28;20290;-70
2023/04/01 11:05:36;;;;;;;0.70;0.27;;;;;;;10.96;86.85;95741.16;5047515;28;20213;-69
2023/04/01 11:08:32;;;;;;;0.57;0.30;;;;;;;10.96;85.51;95733.22;5044666;28;20211;-70
2023/04/01 11:11:26;;;;;;;0.40;0.37;;;;;;;10.88;87.39;95730.59;5042699;28;20531;-69
2023/04/01 11:14:22;;;;;;;0.30;0.20;;;;;;;10.98;85.42;95731.22;5046406;28;20200;-69
2023/04/01 11:17:08;;;;;;;0.40;0.27;;;;;;;11.03;85.00;95730.72;5056634;28;20647;-68
2023/04/01 11:19:55;;;;;;;0.20;0.20;;;;;;;11.13;85.28;95725.25;5053560;28;20223;-67
2023/04/01 11:22:44;;;;;;;0.20;0.20;;;;;;;11.09;84.72;95718.66;5045479;28;20206;-68
2023/04/01 11:25:25;;;;;;;1.90;0.40;;;;;;;11.06;85.46;95719.81;5043412;28;20199;-72
2023/04/01 11:28:06;;;;;;;0.47;0.40;;;;;;;11.11;85.24;95721.97;5042896;28;20646;-69
2023/04/01 11:30:53;;;;;;;0.70;0.30;;;;;;;11.01;88.38;95738.03;5043573;28;20207;-72
2023/04/01 11:33:24;;;;;;;0.10;0.10;;;;;;;10.87;87.55;95721.03;5043661;28;20532;-71
2023/04/01 11:36:00;;;;;;;0.57;0.40;;;;;;;10.89;91.35;95726.94;5049245;28;20191;-68
2023/04/01 11:38:39;;;;;;;1.10;0.97;;;;;;;10.84;95.10;95713.38;5048093;28;20236;-69
2023/04/01 11:41:18;;;;;;;0.97;0.93;;;;;;;10.89;92.58;95719.03;5047254;28;20282;-66
2023/04/01 11:43:55;;;;;;;0.60;0.60;;;;;;;11.02;92.06;95728.28;5046879;28;20674;-67
2023/04/01 11:46:27;;;;;;;4.30;1.27;;;;;;;10.94;89.56;95732.59;5046061;28;20206;-66
2023/04/01 11:49:04;;;;;;;0.80;0.40;;;;;;;11.09;95.00;95731.91;5046015;28;20195;-66
2023/04/01 11:52:00;;;;;;;1.23;1.13;;;;;;;11.16;90.63;95725.72;5048059;28;20597;-67
2023/04/01 11:54:40;;;;;;;0.20;0.10;;;;;;;11.33;91.92;95723.91;5045971;28;20199;-69
2023/04/01 11:57:18;;;;;;;0.60;0.30;;;;;;;11.44;86.87;95736.78;5045409;28;20636;-67
2023/04/01 11:59:58;;;;;;;2.30;0.50;;;;;;;11.54;85.57;95733.91;5044676;28;20255;-65
2023/04/01 12:02:35;;;;;;;0.50;0.30;;;;;;;11.62;84.39;95726.75;5046731;28;20221;-69
2023/04/01 12:05:13;;;;;;;1.97;0.50;;;;;;;11.72;82.77;95732.72;5045253;28;20203;-67
2023/04/01 12:07:54;;;;;;;0.40;0.30;;;;;;;11.84;84.80;95726.03;5046801;28;20203;-67
2023/04/01 12:10:22;;;;;;;1.20;0.27;;;;;;;12.01;82.14;95710.88;5045850;28;20266;-66
2023/04/01 12:12:57;;;;;;;0.23;0.23;;;;;;;12.04;79.04;95707.06;5045889;28;20235;-62
2023/04/01 12:15:31;;;;;;;0.30;0.30;;;;;;;12.11;79.87;95715.97;5046528;28;20201;-64